Time;durP1;ratioP1;P1;durP2;ratioP2;P2;SDS_P1;SDS_P2;PMS_P1;PMS_P2;Temp;Humidity;BMP_temperature;BMP_pressure;BME280_temperature;BME280_humidity;BME280_pressure;Samples;Min_cycle;Max_cycle;Signal;HPM_P1;HPM_P2
2022/06/26 00:01:12;;;;;;;1.65;1.25;;;;;;;17.53;100.00;95672.72;5023551;28;25040;-76
2022/06/26 00:03:38;;;;;;;2.70;1.40;;;;;;;17.64;100.00;95662.09;5017210;28;25004;-76
2022/06/26 00:06:05;;;;;;;1.38;1.08;;;;;;;17.70;100.00;95673.81;5029597;28;24531;-76
2022/06/26 00:08:32;;;;;;;2.07;1.40;;;;;;;17.71;100.00;95678.06;5035758;28;24436;-76
2022/06/26 00:10:58;;;;;;;2.50;1.55;;;;;;;17.65;100.00;95686.50;5038838;28;24463;-76
2022/06/26 00:13:25;;;;;;;2.55;1.55;;;;;;;17.60;100.00;95692.16;5043642;28;24522;-76
2022/06/26 00:15:51;;;;;;;3.85;1.85;;;;;;;17.57;100.00;95707.31;5028075;28;24428;-76
2022/06/26 00:18:19;;;;;;;2.58;1.70;;;;;;;17.57;100.00;95710.75;5034064;28;24460;-76
2022/06/26 00:20:46;;;;;;;2.50;1.75;;;;;;;17.41;100.00;95710.50;5025836;28;24452;-76
2022/06/26 00:23:12;;;;;;;4.30;1.87;;;;;;;17.32;100.00;95709.56;5036950;28;24890;-76
2022/06/26 00:25:41;;;;;;;1.80;1.13;;;;;;;17.49;100.00;95705.41;5026845;28;24445;-76
2022/06/26 00:28:08;;;;;;;1.88;1.30;;;;;;;17.69;100.00;95710.59;5032714;28;24455;-75
2022/06/26 00:30:34;;;;;;;2.15;1.02;;;;;;;17.81;100.00;95706.91;5021230;28;24436;-76
2022/06/26 00:33:01;;;;;;;2.88;1.10;;;;;;;17.96;100.00;95704.66;5018859;28;24439;-76
2022/06/26 00:35:29;;;;;;;1.90;1.10;;;;;;;18.06;100.00;95706.25;5025312;28;24547;-76
2022/06/26 00:37:55;;;;;;;3.03;0.93;;;;;;;18.15;100.00;95707.19;5031662;28;24447;-76
2022/06/26 00:40:22;;;;;;;1.73;0.73;;;;;;;18.27;100.00;95694.72;5028201;28;24491;-76
2022/06/26 00:42:49;;;;;;;2.92;0.77;;;;;;;18.30;100.00;95697.88;5022319;28;24439;-76
2022/06/26 00:45:15;;;;;;;0.93;0.60;;;;;;;18.41;100.00;95696.84;5025364;28;24430;-76
2022/06/26 00:47:42;;;;;;;1.23;0.90;;;;;;;18.45;100.00;95687.72;5029251;28;24439;-76
2022/06/26 00:50:10;;;;;;;1.60;0.90;;;;;;;18.53;99.98;95689.59;5023767;28;24430;-76
2022/06/26 00:52:40;;;;;;;1.38;0.85;;;;;;;18.59;100.00;95679.34;5026355;28;24432;-76
2022/06/26 00:55:08;;;;;;;1.42;0.70;;;;;;;19.08;98.68;95661.47;5024518;28;24436;-76
2022/06/26 00:57:36;;;;;;;1.00;0.68;;;;;;;19.24;99.55;95644.22;5029453;28;24443;-76
2022/06/26 01:00:05;;;;;;;1.60;0.90;;;;;;;19.14;96.56;95646.13;5017252;28;24452;-76
2022/06/26 01:02:31;;;;;;;0.70;0.60;;;;;;;18.48;100.00;95666.44;5023962;28;24502;-76
2022/06/26 01:04:58;;;;;;;2.30;1.00;;;;;;;18.48;100.00;95668.25;5023396;28;24441;-76
2022/06/26 01:07:26;;;;;;;0.73;0.57;;;;;;;18.34;100.00;95672.19;5025637;28;21281;-76
2022/06/26 01:09:55;;;;;;;1.35;0.75;;;;;;;18.19;100.00;95671.03;5027017;28;24434;-76
2022/06/26 01:12:21;;;;;;;2.30;0.70;;;;;;;18.07;100.00;95681.69;5018988;28;24859;-76
2022/06/26 01:14:48;;;;;;;0.70;0.70;;;;;;;17.79;100.00;95686.06;5018052;28;24799;-76
2022/06/26 01:17:17;;;;;;;1.27;0.80;;;;;;;17.53;100.00;95690.22;5026572;28;24439;-76
2022/06/26 01:19:44;;;;;;;1.17;0.90;;;;;;;17.49;100.00;95681.00;5023327;28;24538;-76
2022/06/26 01:22:11;;;;;;;0.93;0.77;;;;;;;17.60;100.00;95679.06;5017684;28;24977;-76
2022/06/26 01:24:39;;;;;;;1.83;0.80;;;;;;;17.62;100.00;95677.13;5022383;28;24440;-76
2022/06/26 01:27:06;;;;;;;1.63;0.85;;;;;;;17.58;100.00;95680.19;5015189;28;24451;-76
2022/06/26 01:29:33;;;;;;;1.02;0.77;;;;;;;17.69;100.00;95673.94;5026690;28;24494;-76
2022/06/26 01:31:59;;;;;;;1.50;0.70;;;;;;;17.79;100.00;95680.00;5015725;28;24436;-76
2022/06/26 01:34:26;;;;;;;1.00;0.60;;;;;;;17.80;100.00;95682.50;5026912;28;25036;-76
2022/06/26 01:36:53;;;;;;;1.17;0.90;;;;;;;17.77;100.00;95676.72;5024313;28;24452;-76
2022/06/26 01:39:20;;;;;;;1.50;0.80;;;;;;;17.66;100.00;95673.25;5027441;28;24854;-75
2022/06/26 01:41:50;;;;;;;2.05;0.68;;;;;;;17.62;100.00;95681.56;5021336;28;24435;-76
2022/06/26 01:44:24;;;;;;;1.13;0.40;;;;;;;17.70;100.00;95678.22;5021382;28;24487;-76
2022/06/26 01:46:51;;;;;;;1.30;0.63;;;;;;;17.64;100.00;95679.59;5014729;28;24432;-76
2022/06/26 01:49:17;;;;;;;1.63;0.60;;;;;;;17.64;100.00;95680.41;5014493;28;24540;-76
2022/06/26 01:51:44;;;;;;;0.65;0.43;;;;;;;17.67;100.00;95682.75;5022238;28;24433;-75
2022/06/26 01:54:10;;;;;;;1.08;0.60;;;;;;;17.77;100.00;95672.31;5015488;28;24946;-76
2022/06/26 01:56:37;;;;;;;1.13;0.55;;;;;;;18.07;100.00;95676.47;5017995;28;24448;-76
2022/06/26 01:59:05;;;;;;;0.38;0.38;;;;;;;17.90;100.00;95678.03;5031044;28;24458;-76
2022/06/26 02:01:32;;;;;;;1.40;0.60;;;;;;;17.91;100.00;95681.50;5026173;28;24484;-76
2022/06/26 02:03:59;;;;;;;0.50;0.50;;;;;;;17.90;100.00;95674.59;5033526;28;24478;-76
2022/06/26 02:06:25;;;;;;;2.30;0.80;;;;;;;17.88;100.00;95679.16;5027483;28;24447;-76
2022/06/26 02:08:52;;;;;;;1.48;0.60;;;;;;;17.89;100.00;95686.03;5025013;28;24977;-77
2022/06/26 02:14:02;;;;;;;1.25;0.68;;;;;;;18.02;100.00;95678.69;5028052;28;25042;-76
2022/06/26 02:16:31;;;;;;;1.15;0.55;;;;;;;18.48;98.34;95679.56;5021678;28;24460;-76
2022/06/26 02:18:58;;;;;;;0.90;0.55;;;;;;;18.24;100.00;95676.66;5017088;28;24444;-76
2022/06/26 02:21:28;;;;;;;2.20;0.80;;;;;;;18.03;100.00;95664.63;5023183;28;24458;-77
2022/06/26 02:23:55;;;;;;;1.40;0.60;;;;;;;17.88;100.00;95673.91;5028114;28;24459;-77
2022/06/26 02:26:23;;;;;;;0.68;0.50;;;;;;;18.06;100.00;95676.63;5017972;28;24518;-77
2022/06/26 02:28:49;;;;;;;1.30;0.47;;;;;;;17.97;100.00;95673.03;5020158;28;24432;-76
2022/06/26 02:31:16;;;;;;;0.90;0.70;;;;;;;17.95;100.00;95680.25;5024222;28;24436;-77
2022/06/26 02:33:44;;;;;;;0.63;0.50;;;;;;;18.05;100.00;95688.88;5021399;28;24444;-77
2022/06/26 02:36:10;;;;;;;1.40;0.57;;;;;;;18.11;99.59;95692.72;5028549;28;24447;-77
2022/06/26 02:38:38;;;;;;;0.60;0.55;;;;;;;17.89;100.00;95688.66;5030975;28;24439;-77
2022/06/26 02:41:05;;;;;;;1.38;0.70;;;;;;;18.15;100.00;95686.22;5022642;28;24543;-77
2022/06/26 02:43:32;;;;;;;1.30;0.70;;;;;;;17.96;100.00;95678.44;5025641;28;24439;-77
2022/06/26 02:45:59;;;;;;;0.70;0.52;;;;;;;17.85;100.00;95687.31;5022681;28;24531;-76
2022/06/26 02:48:25;;;;;;;0.70;0.60;;;;;;;17.72;100.00;95681.50;5021138;28;24447;-77
2022/06/26 02:50:53;;;;;;;1.20;0.70;;;;;;;17.69;100.00;95682.63;5024683;28;24442;-76
2022/06/26 02:53:20;;;;;;;1.17;0.77;;;;;;;17.66;100.00;95686.34;5023569;28;24443;-77
2022/06/26 02:55:46;;;;;;;1.30;0.60;;;;;;;17.64;100.00;95690.91;5023985;28;24432;-76
2022/06/26 02:58:13;;;;;;;0.80;0.70;;;;;;;17.57;100.00;95684.56;5022231;28;24494;-76
2022/06/26 03:00:40;;;;;;;1.03;0.60;;;;;;;17.72;100.00;95664.00;5023988;28;24988;-77
2022/06/26 03:03:06;;;;;;;1.20;0.60;;;;;;;17.67;100.00;95663.59;5021543;28;24443;-76
2022/06/26 03:05:33;;;;;;;0.73;0.60;;;;;;;17.52;100.00;95660.59;5026143;28;24448;-77
2022/06/26 03:08:01;;;;;;;1.50;0.55;;;;;;;17.46;100.00;95653.31;5032478;28;24437;-77
2022/06/26 03:10:28;;;;;;;1.20;0.60;;;;;;;17.56;100.00;95661.97;5023279;28;24431;-77
2022/06/26 03:12:54;;;;;;;0.70;0.47;;;;;;;17.46;100.00;95657.72;5023792;28;25055;-76
2022/06/26 03:15:21;;;;;;;0.87;0.70;;;;;;;17.43;100.00;95664.09;5024266;28;24439;-76
2022/06/26 03:17:48;;;;;;;1.55;0.70;;;;;;;17.43;100.00;95658.84;5024048;28;24447;-77
2022/06/26 03:20:16;;;;;;;2.00;0.80;;;;;;;17.33;100.00;95660.66;5024144;28;24456;-77
2022/06/26 03:22:43;;;;;;;2.53;0.80;;;;;;;17.41;100.00;95672.06;5023301;28;24444;-76
2022/06/26 03:25:11;;;;;;;1.65;0.68;;;;;;;17.33;100.00;95678.97;5025402;28;25003;-76
2022/06/26 03:27:38;;;;;;;0.68;0.60;;;;;;;17.33;100.00;95685.03;5024449;28;24448;-76
2022/06/26 03:30:04;;;;;;;1.20;0.73;;;;;;;17.34;100.00;95691.09;5023341;28;24432;-76
2022/06/26 03:32:31;;;;;;;0.70;0.50;;;;;;;17.34;100.00;95693.72;5025252;28;25012;-76
2022/06/26 03:34:57;;;;;;;1.20;0.70;;;;;;;17.23;100.00;95689.44;5021955;28;24448;-76
2022/06/26 03:37:24;;;;;;;0.73;0.70;;;;;;;17.09;100.00;95685.47;5025828;28;24440;-77
2022/06/26 03:39:50;;;;;;;2.25;0.77;;;;;;;17.05;100.00;95689.31;5021027;28;24432;-77
2022/06/26 03:42:18;;;;;;;0.93;0.73;;;;;;;17.13;100.00;95689.47;5026775;28;24522;-77
2022/06/26 03:44:45;;;;;;;1.10;0.77;;;;;;;17.21;100.00;95693.19;5013806;28;24440;-77
2022/06/26 03:47:11;;;;;;;2.08;0.80;;;;;;;17.28;100.00;95707.34;5012098;28;24447;-77
2022/06/26 03:49:38;;;;;;;6.13;0.80;;;;;;;17.27;100.00;95714.38;5020056;28;24530;-76
2022/06/26 03:52:05;;;;;;;0.90;0.70;;;;;;;17.37;100.00;95715.19;5027009;28;24435;-76
2022/06/26 03:54:34;;;;;;;1.30;0.90;;;;;;;17.32;100.00;95714.81;5019772;28;24981;-77
2022/06/26 03:57:00;;;;;;;2.23;1.00;;;;;;;17.29;100.00;95719.50;5026745;28;24968;-77
2022/06/26 03:59:28;;;;;;;1.23;0.90;;;;;;;17.13;100.00;95714.78;5013263;28;24440;-76
2022/06/26 04:01:55;;;;;;;2.13;1.10;;;;;;;17.18;100.00;95717.84;5026520;28;24511;-76
2022/06/26 04:04:21;;;;;;;1.07;0.80;;;;;;;17.23;100.00;95709.56;5020120;28;24468;-77
2022/06/26 04:06:48;;;;;;;0.77;0.60;;;;;;;17.30;100.00;95718.53;5019719;28;24503;-77
2022/06/26 04:09:14;;;;;;;0.70;0.70;;;;;;;17.31;100.00;95704.47;5021335;28;24435;-77
2022/06/26 04:11:41;;;;;;;0.80;0.70;;;;;;;17.42;100.00;95699.88;5026493;28;24431;-77
2022/06/26 04:14:07;;;;;;;1.80;1.08;;;;;;;17.68;100.00;95699.28;5020673;28;24459;-77
2022/06/26 04:16:35;;;;;;;1.75;0.80;;;;;;;17.64;100.00;95697.94;5019636;28;24436;-77
2022/06/26 04:19:01;;;;;;;0.90;0.80;;;;;;;17.58;100.00;95694.09;5021828;28;24440;-77
2022/06/26 04:21:28;;;;;;;2.47;1.03;;;;;;;17.66;100.00;95680.28;5018794;28;24866;-77
2022/06/26 04:23:54;;;;;;;1.38;0.65;;;;;;;17.36;100.00;95683.94;5018411;28;24970;-76
2022/06/26 04:26:21;;;;;;;0.75;0.65;;;;;;;16.92;100.00;95684.38;5021077;28;24795;-76
2022/06/26 04:28:47;;;;;;;4.75;1.20;;;;;;;16.52;100.00;95694.06;5019120;28;24444;-76
2022/06/26 04:31:14;;;;;;;1.48;0.88;;;;;;;16.44;100.00;95699.97;5025772;28;24435;-77
2022/06/26 04:33:43;;;;;;;1.35;1.00;;;;;;;16.42;100.00;95701.88;5021516;28;24961;-77
2022/06/26 04:36:11;;;;;;;2.73;0.80;;;;;;;16.47;100.00;95704.09;5022797;28;24989;-76
2022/06/26 04:38:37;;;;;;;1.08;0.98;;;;;;;16.42;100.00;95710.53;5024630;28;24444;-77
2022/06/26 04:41:31;;;;;;;1.52;1.02;;;;;;;16.57;100.00;95699.69;5023094;28;24483;-77
2022/06/26 04:43:51;;;;;;;3.42;1.15;;;;;;;16.59;100.00;95696.00;5027849;28;24430;-77
2022/06/26 04:46:17;;;;;;;1.05;0.82;;;;;;;16.66;100.00;95704.97;5013740;28;24432;-75
2022/06/26 04:48:45;;;;;;;1.80;1.08;;;;;;;16.71;100.00;95704.53;5022823;28;24442;-75
2022/06/26 04:51:11;;;;;;;1.30;1.00;;;;;;;16.84;100.00;95707.78;5021964;28;24490;-75
2022/06/26 04:53:38;;;;;;;1.80;1.15;;;;;;;16.93;100.00;95704.31;5015240;28;24444;-75
2022/06/26 04:56:05;;;;;;;1.23;0.90;;;;;;;17.03;100.00;95711.38;5021179;28;24802;-76
2022/06/26 04:58:32;;;;;;;0.85;0.82;;;;;;;17.10;100.00;95709.84;5022519;28;25057;-77
2022/06/26 05:00:59;;;;;;;2.15;1.00;;;;;;;17.26;100.00;95717.16;5025462;28;24464;-76
2022/06/26 05:03:25;;;;;;;1.40;1.02;;;;;;;17.36;100.00;95718.78;5017584;28;24815;-77
2022/06/26 05:05:53;;;;;;;1.23;0.95;;;;;;;17.53;100.00;95719.84;5022220;28;24440;-76
2022/06/26 05:08:19;;;;;;;1.20;1.00;;;;;;;17.60;100.00;95720.94;5020052;28;24433;-76
2022/06/26 05:10:46;;;;;;;1.73;1.00;;;;;;;17.67;100.00;95727.28;5013866;28;24429;-76
2022/06/26 05:13:12;;;;;;;1.40;1.00;;;;;;;17.74;100.00;95730.19;5019645;28;24462;-77
2022/06/26 05:15:39;;;;;;;3.80;1.13;;;;;;;17.66;100.00;95735.28;5025813;28;24439;-77
2022/06/26 05:18:05;;;;;;;1.17;0.93;;;;;;;17.73;100.00;95746.88;5018697;28;24466;-77
2022/06/26 05:20:32;;;;;;;5.03;1.20;;;;;;;17.64;100.00;95753.75;5026109;28;24440;-77
2022/06/26 05:23:00;;;;;;;1.20;0.90;;;;;;;17.77;100.00;95760.53;5017374;28;24432;-77
2022/06/26 05:25:26;;;;;;;1.00;0.80;;;;;;;17.92;100.00;95758.31;5026454;28;24435;-77
2022/06/26 05:27:53;;;;;;;2.15;1.00;;;;;;;17.97;100.00;95754.28;5013357;28;24452;-77
2022/06/26 05:30:19;;;;;;;2.30;1.00;;;;;;;18.08;100.00;95756.72;5018932;28;24432;-77
2022/06/26 05:32:46;;;;;;;1.27;0.82;;;;;;;18.18;100.00;95751.47;5022191;28;24437;-76
2022/06/26 05:35:12;;;;;;;2.00;1.45;;;;;;;18.41;100.00;95740.59;5035053;28;24435;-77
2022/06/26 05:37:39;;;;;;;1.20;1.00;;;;;;;18.50;100.00;95737.94;5030165;28;25027;-77
2022/06/26 05:40:08;;;;;;;1.00;0.90;;;;;;;18.66;100.00;95726.00;5024084;28;24428;-76
2022/06/26 05:42:34;;;;;;;1.42;1.02;;;;;;;18.62;100.00;95733.31;5026704;28;24993;-77
2022/06/26 05:45:01;;;;;;;1.10;0.85;;;;;;;18.73;100.00;95737.59;5032243;28;24424;-77
2022/06/26 05:47:27;;;;;;;2.03;1.40;;;;;;;18.92;100.00;95739.25;5017533;28;24830;-77
2022/06/26 05:49:54;;;;;;;1.48;1.05;;;;;;;18.75;100.00;95741.69;5031698;28;24416;-77
2022/06/26 05:52:20;;;;;;;1.60;1.20;;;;;;;18.79;100.00;95735.16;5018077;28;24451;-77
2022/06/26 05:54:47;;;;;;;1.17;1.00;;;;;;;19.01;100.00;95728.69;5030307;28;24456;-76
2022/06/26 05:57:14;;;;;;;2.42;1.63;;;;;;;19.67;100.00;95724.84;5018696;28;24833;-77
2022/06/26 05:59:41;;;;;;;3.28;1.60;;;;;;;20.13;100.00;95720.19;5020475;28;24432;-76
2022/06/26 06:02:08;;;;;;;2.40;1.17;;;;;;;20.08;100.00;95717.22;5030580;28;24451;-77
2022/06/26 06:04:34;;;;;;;2.72;1.58;;;;;;;20.31;100.00;95718.31;5031097;28;24432;-76
2022/06/26 06:07:00;;;;;;;1.45;1.10;;;;;;;20.29;100.00;95729.97;5032991;28;24439;-77
2022/06/26 06:09:27;;;;;;;2.40;1.08;;;;;;;20.22;100.00;95732.41;5020670;28;24814;-77
2022/06/26 06:11:53;;;;;;;1.83;1.00;;;;;;;20.38;100.00;95741.34;5024958;28;25000;-76
2022/06/26 06:14:21;;;;;;;1.80;1.30;;;;;;;20.40;100.00;95742.03;5021160;28;25015;-77
2022/06/26 06:16:48;;;;;;;1.60;0.95;;;;;;;20.30;99.72;95742.16;5024704;28;24791;-76
2022/06/26 06:19:14;;;;;;;1.75;0.95;;;;;;;20.20;100.00;95736.16;5029710;28;24439;-77
2022/06/26 06:21:41;;;;;;;1.60;1.13;;;;;;;20.41;100.00;95731.34;5016711;28;24460;-77
2022/06/26 06:24:08;;;;;;;1.13;0.90;;;;;;;20.95;99.18;95729.25;5020532;28;24447;-77
2022/06/26 06:26:34;;;;;;;1.55;1.23;;;;;;;21.40;100.00;95735.13;5023367;28;24965;-77
2022/06/26 06:29:01;;;;;;;2.60;1.17;;;;;;;21.41;98.37;95742.03;5014381;28;24463;-77
2022/06/26 06:31:28;;;;;;;2.13;1.00;;;;;;;21.40;93.89;95759.66;5020719;28;24438;-77
2022/06/26 06:33:55;;;;;;;1.92;1.25;;;;;;;21.33;89.36;95766.56;5016193;28;24428;-72
2022/06/26 06:36:21;;;;;;;1.50;0.87;;;;;;;21.34;89.55;95768.19;5024403;28;24444;-77
2022/06/26 06:38:48;;;;;;;1.40;0.80;;;;;;;21.63;91.84;95765.09;5018356;28;24799;-77
2022/06/26 06:41:14;;;;;;;2.30;0.90;;;;;;;21.54;86.77;95760.78;5016594;28;24456;-77
2022/06/26 06:43:41;;;;;;;3.22;0.90;;;;;;;21.76;86.38;95764.56;5022506;28;24436;-77
2022/06/26 06:46:07;;;;;;;1.40;0.70;;;;;;;21.67;83.49;95763.75;5025531;28;24540;-77
2022/06/26 06:48:35;;;;;;;1.70;1.10;;;;;;;21.67;83.70;95766.41;5015870;28;24532;-77
2022/06/26 06:51:01;;;;;;;1.90;1.00;;;;;;;21.82;85.21;95765.75;5022787;28;24435;-77
2022/06/26 06:53:28;;;;;;;3.10;0.80;;;;;;;22.09;88.68;95772.47;5013134;28;24459;-76
2022/06/26 06:55:54;;;;;;;2.40;0.70;;;;;;;22.26;85.66;95774.13;5024691;28;24427;-77
2022/06/26 06:58:21;;;;;;;1.00;0.80;;;;;;;22.45;84.48;95776.38;5012474;28;24444;-76
2022/06/26 07:00:47;;;;;;;4.78;1.10;;;;;;;22.36;81.30;95774.75;5024779;28;24443;-76
2022/06/26 07:03:14;;;;;;;1.05;0.80;;;;;;;22.78;82.95;95776.25;5019038;28;24448;-76
2022/06/26 07:05:41;;;;;;;1.38;1.02;;;;;;;23.28;82.37;95775.03;5023740;28;24486;-76
2022/06/26 07:08:08;;;;;;;1.00;0.80;;;;;;;23.52;77.60;95773.22;5022248;28;24451;-76
2022/06/26 07:10:34;;;;;;;1.67;0.73;;;;;;;23.39;75.12;95771.16;5017396;28;24455;-77
2022/06/26 07:13:01;;;;;;;1.50;1.02;;;;;;;23.26;79.05;95769.09;5021077;28;24428;-77
2022/06/26 07:15:27;;;;;;;1.80;0.90;;;;;;;23.35;73.99;95769.88;5018306;28;24439;-77
2022/06/26 07:17:54;;;;;;;1.90;0.80;;;;;;;23.65;77.98;95765.50;5020540;28;24440;-77
2022/06/26 07:20:21;;;;;;;1.73;0.95;;;;;;;23.84;76.71;95765.06;5017277;28;24427;-77
2022/06/26 07:22:48;;;;;;;5.30;0.85;;;;;;;23.75;75.10;95766.13;5024603;28;24466;-76
2022/06/26 07:25:15;;;;;;;1.30;0.90;;;;;;;23.84;74.58;95770.38;5014584;28;24433;-76
2022/06/26 07:27:42;;;;;;;1.13;0.68;;;;;;;23.78;74.61;95765.78;5012716;28;24444;-77
2022/06/26 07:30:08;;;;;;;1.65;0.85;;;;;;;23.54;71.56;95774.69;5022312;28;24458;-77
2022/06/26 07:32:35;;;;;;;1.35;0.85;;;;;;;23.57;73.24;95768.22;5017498;28;24986;-76
2022/06/26 07:35:01;;;;;;;1.63;0.80;;;;;;;23.42;74.05;95774.28;5020953;28;25032;-76
2022/06/26 07:37:28;;;;;;;1.08;0.60;;;;;;;23.63;76.00;95772.81;5018748;28;24803;-77
2022/06/26 07:39:56;;;;;;;1.45;0.75;;;;;;;23.48;75.78;95772.75;5020138;28;24432;-76
2022/06/26 07:42:23;;;;;;;1.55;0.90;;;;;;;23.37;73.78;95778.44;5020642;28;25095;-73
2022/06/26 07:44:49;;;;;;;2.60;1.00;;;;;;;23.25;75.14;95767.47;5019523;28;24834;-77
2022/06/26 07:47:16;;;;;;;3.88;0.70;;;;;;;23.23;75.31;95769.44;5020347;28;24992;-76
2022/06/26 07:49:42;;;;;;;1.60;0.70;;;;;;;23.38;78.84;95765.06;5023379;28;24928;-76
2022/06/26 07:52:09;;;;;;;1.40;0.80;;;;;;;23.59;73.99;95766.25;5015541;28;24435;-76
2022/06/26 07:54:35;;;;;;;1.15;0.90;;;;;;;23.65;74.32;95765.50;5013285;28;24425;-77
2022/06/26 07:57:03;;;;;;;1.27;0.88;;;;;;;23.62;74.61;95764.06;5026505;28;24447;-77
2022/06/26 07:59:30;;;;;;;0.80;0.70;;;;;;;23.86;73.71;95764.88;5012643;28;24424;-77
2022/06/26 08:01:56;;;;;;;2.00;0.80;;;;;;;24.01;73.91;95767.56;5026148;28;24464;-76
2022/06/26 08:04:23;;;;;;;1.00;0.80;;;;;;;24.02;70.73;95775.31;5012907;28;24825;-76
2022/06/26 08:09:19;;;;;;;1.52;0.73;;;;;;;24.20;72.78;95782.91;5009479;28;24830;-73
2022/06/26 08:11:46;;;;;;;1.00;0.80;;;;;;;24.24;68.42;95788.66;5024352;28;24836;-73
2022/06/26 08:14:13;;;;;;;1.80;0.70;;;;;;;24.04;68.08;95783.09;5021608;28;24836;-73
2022/06/26 08:16:40;;;;;;;0.90;0.70;;;;;;;23.83;71.98;95776.63;5023491;28;24432;-73
2022/06/26 08:19:07;;;;;;;4.13;0.82;;;;;;;24.01;73.18;95784.25;5021163;28;24506;-72
2022/06/26 08:24:18;;;;;;;2.28;1.00;;;;;;;23.87;71.79;95769.97;5008848;28;24802;-72
2022/06/26 08:26:45;;;;;;;1.20;0.95;;;;;;;24.12;71.12;95777.72;5009616;28;24894;-72
2022/06/26 08:29:11;;;;;;;1.58;0.77;;;;;;;24.36;69.78;95782.78;5011514;28;24431;-72
2022/06/26 08:31:39;;;;;;;1.45;0.80;;;;;;;24.35;70.72;95778.47;5011393;28;24494;-72
2022/06/26 08:34:05;;;;;;;2.10;0.95;;;;;;;24.75;69.94;95779.03;5008627;28;24535;-72
2022/06/26 08:36:32;;;;;;;2.47;1.27;;;;;;;24.65;68.87;95772.38;5012149;28;24425;-73
2022/06/26 08:38:58;;;;;;;1.98;0.88;;;;;;;24.60;65.57;95767.63;5012208;28;24443;-72
2022/06/26 08:41:28;;;;;;;1.10;0.90;;;;;;;24.76;70.62;95774.56;5011903;28;24436;-72
2022/06/26 08:43:58;;;;;;;2.83;1.00;;;;;;;24.89;68.98;95773.94;5013219;28;25000;-72
2022/06/26 08:46:27;;;;;;;5.70;1.00;;;;;;;25.23;69.69;95779.44;5015925;28;24495;-72
2022/06/26 08:48:58;;;;;;;1.65;0.88;;;;;;;25.45;69.67;95775.00;5025445;28;24435;-73
2022/06/26 08:51:25;;;;;;;3.50;0.80;;;;;;;25.16;63.63;95783.84;5018345;28;24519;-73
2022/06/26 08:53:54;;;;;;;1.13;0.85;;;;;;;25.02;67.16;95789.97;5025089;28;24836;-72
2022/06/26 08:56:20;;;;;;;0.93;0.75;;;;;;;24.93;65.29;95791.91;5018204;28;24656;-74
2022/06/26 08:58:47;;;;;;;1.30;0.88;;;;;;;24.87;65.31;95793.44;5010103;28;24444;-73
2022/06/26 09:01:14;;;;;;;1.20;0.80;;;;;;;24.91;67.47;95793.09;5014467;28;24425;-73
2022/06/26 09:03:40;;;;;;;1.00;0.60;;;;;;;24.74;68.79;95801.25;5023876;28;24538;-73
2022/06/26 09:06:08;;;;;;;2.57;0.70;;;;;;;24.22;67.03;95799.44;5018310;28;24483;-73
2022/06/26 09:08:43;;;;;;;2.78;0.60;;;;;;;24.36;71.87;95789.88;5021975;28;24450;-73
2022/06/26 09:11:09;;;;;;;2.35;0.90;;;;;;;24.65;69.06;95790.91;5018302;28;24443;-73
2022/06/26 09:13:37;;;;;;;1.30;0.90;;;;;;;24.73;66.26;95786.34;5022899;28;24432;-72
2022/06/26 09:16:05;;;;;;;0.88;0.70;;;;;;;24.80;70.00;95791.72;5018683;28;24424;-73
2022/06/26 09:18:35;;;;;;;1.05;0.70;;;;;;;24.44;66.32;95789.84;5021766;28;24435;-73
2022/06/26 09:21:01;;;;;;;3.97;0.82;;;;;;;24.21;69.11;95797.78;5019227;28;24523;-73
2022/06/26 09:23:29;;;;;;;0.90;0.60;;;;;;;24.23;69.26;95800.28;5015354;28;24451;-73
2022/06/26 09:25:55;;;;;;;2.67;0.75;;;;;;;24.44;69.30;95796.97;5012679;28;24794;-72
2022/06/26 09:28:23;;;;;;;1.00;0.75;;;;;;;24.42;67.57;95793.66;5016417;28;25035;-72
2022/06/26 09:30:52;;;;;;;1.30;0.90;;;;;;;23.88;67.61;95792.81;5017848;28;24436;-73
2022/06/26 09:33:18;;;;;;;1.25;0.80;;;;;;;24.05;69.01;95797.94;5016924;28;24425;-73
2022/06/26 09:35:45;;;;;;;2.42;0.82;;;;;;;24.51;67.38;95798.69;5017815;28;24986;-72
2022/06/26 09:38:17;;;;;;;3.90;0.70;;;;;;;24.58;66.60;95796.13;5013605;28;24445;-73
2022/06/26 09:40:48;;;;;;;0.80;0.70;;;;;;;24.73;66.68;95798.75;5019453;28;24432;-72
2022/06/26 09:43:30;;;;;;;1.17;0.70;;;;;;;25.27;65.65;95806.41;5017849;28;24498;-72
2022/06/26 09:45:58;;;;;;;1.85;0.77;;;;;;;24.60;64.23;95808.19;5019422;28;24846;-72
2022/06/26 09:48:25;;;;;;;1.37;0.83;;;;;;;24.43;66.17;95806.69;5023576;28;24441;-72
2022/06/26 09:50:52;;;;;;;0.70;0.70;;;;;;;24.86;74.93;95806.91;5018970;28;24444;-73
2022/06/26 09:53:20;;;;;;;1.58;0.57;;;;;;;25.29;67.28;95799.91;5024275;28;24439;-72
2022/06/26 09:55:49;;;;;;;1.35;0.65;;;;;;;25.44;65.15;95791.91;5017958;28;24907;-72
2022/06/26 09:58:15;;;;;;;0.70;0.60;;;;;;;24.97;61.83;95789.72;5016970;28;24467;-72
2022/06/26 10:00:42;;;;;;;2.17;0.90;;;;;;;25.26;64.43;95781.72;5018145;28;24821;-73
2022/06/26 10:08:42;;;;;;;2.50;0.70;;;;;;;24.84;67.79;95785.91;5020679;28;25011;-72
2022/06/26 10:11:11;;;;;;;0.77;0.70;;;;;;;24.25;66.86;95790.31;5020720;28;24988;-72
2022/06/26 10:13:42;;;;;;;1.40;0.63;;;;;;;24.19;67.92;95799.00;5020818;28;24444;-72
2022/06/26 10:16:26;;;;;;;3.90;0.73;;;;;;;24.78;68.85;95799.06;5020820;28;24432;-72
2022/06/26 10:19:17;;;;;;;3.50;0.80;;;;;;;24.66;66.20;95792.56;5019485;28;24444;-73
2022/06/26 10:21:46;;;;;;;1.20;0.60;;;;;;;24.78;67.98;95805.16;5025037;28;24431;-72
2022/06/26 10:24:13;;;;;;;0.90;0.70;;;;;;;24.57;67.81;95802.41;5011505;28;25223;-72
2022/06/26 10:26:52;;;;;;;0.88;0.70;;;;;;;24.45;69.26;95799.41;5023317;28;24462;-73
2022/06/26 10:29:18;;;;;;;0.70;0.60;;;;;;;24.29;68.25;95800.38;5013285;28;24519;-72
2022/06/26 10:31:47;;;;;;;0.80;0.60;;;;;;;24.33;70.74;95796.38;5022411;28;24447;-72
2022/06/26 10:34:16;;;;;;;2.35;0.85;;;;;;;24.11;69.78;95794.59;5019585;28;24439;-72
2022/06/26 10:36:43;;;;;;;0.80;0.68;;;;;;;23.93;72.00;95794.09;5024617;28;25051;-72
2022/06/26 10:39:09;;;;;;;1.05;0.70;;;;;;;24.13;69.56;95801.31;5021269;28;24448;-73
2022/06/26 10:44:34;;;;;;;1.30;0.70;;;;;;;24.22;70.22;95799.44;5013933;28;24442;-73
2022/06/26 10:47:01;;;;;;;4.38;3.92;;;;;;;23.78;69.69;95784.28;5023373;28;24547;-72
2022/06/26 10:49:27;;;;;;;1.58;1.13;;;;;;;23.51;71.32;95792.72;5019076;28;24432;-73
2022/06/26 10:51:55;;;;;;;1.20;1.08;;;;;;;23.65;72.66;95794.59;5018491;28;24486;-73
2022/06/26 10:54:23;;;;;;;5.72;5.10;;;;;;;24.24;70.78;95794.78;5005336;28;24941;-72
2022/06/26 10:57:06;;;;;;;1.23;1.13;;;;;;;24.68;69.45;95798.50;5007843;28;24439;-74
2022/06/26 10:59:32;;;;;;;2.10;1.60;;;;;;;24.56;67.14;95792.84;5011153;28;24439;-73
2022/06/26 11:01:58;;;;;;;1.23;0.98;;;;;;;24.83;65.89;95796.66;5011675;28;24463;-72
2022/06/26 11:04:25;;;;;;;1.20;0.85;;;;;;;24.51;70.63;95793.41;5009083;28;24452;-72
2022/06/26 11:06:51;;;;;;;0.60;0.60;;;;;;;24.17;69.45;95783.28;5010862;28;24962;-72
2022/06/26 11:09:18;;;;;;;0.97;0.77;;;;;;;23.33;73.49;95793.03;5011157;28;24439;-72
2022/06/26 11:11:53;;;;;;;0.60;0.57;;;;;;;23.81;76.36;95778.66;5011403;28;24429;-73
2022/06/26 11:14:19;;;;;;;2.90;0.88;;;;;;;23.81;70.93;95781.28;5006993;28;24424;-72
2022/06/26 11:16:46;;;;;;;0.85;0.68;;;;;;;24.04;72.49;95786.53;5010981;28;24428;-72
2022/06/26 11:19:22;;;;;;;0.75;0.75;;;;;;;24.37;68.92;95784.41;5011242;28;24440;-73
2022/06/26 11:21:49;;;;;;;1.07;0.80;;;;;;;24.18;69.73;95782.28;5008324;28;24841;-72
2022/06/26 11:24:15;;;;;;;0.90;0.80;;;;;;;24.33;73.81;95777.03;5011206;28;24593;-72
2022/06/26 11:26:42;;;;;;;0.82;0.80;;;;;;;24.01;71.37;95775.50;5011194;28;24443;-72
2022/06/26 11:29:10;;;;;;;2.22;1.00;;;;;;;23.58;72.51;95781.28;5011618;28;24441;-72
2022/06/26 11:31:37;;;;;;;1.17;0.90;;;;;;;23.21;74.05;95782.00;5010296;28;24462;-73
2022/06/26 11:34:11;;;;;;;1.30;0.80;;;;;;;23.34;74.00;95786.72;5008118;28;24432;-72
2022/06/26 11:36:49;;;;;;;1.00;0.90;;;;;;;23.24;75.67;95786.94;5002978;28;24463;-73
2022/06/26 11:39:16;;;;;;;0.93;0.75;;;;;;;23.48;75.79;95787.81;5008471;28;24540;-72
2022/06/26 11:41:43;;;;;;;1.48;1.00;;;;;;;23.42;72.83;95779.56;5008901;28;24431;-73
2022/06/26 11:44:11;;;;;;;1.48;0.82;;;;;;;23.57;74.90;95778.81;5008891;28;24842;-75
2022/06/26 11:46:37;;;;;;;1.13;0.82;;;;;;;24.15;74.59;95780.00;5007594;28;24444;-73